Time;durP1;ratioP1;P1;durP2;ratioP2;P2;SDS_P1;SDS_P2;PMS_P1;PMS_P2;Temp;Humidity;BMP_temperature;BMP_pressure;BME280_temperature;BME280_humidity;BME280_pressure;Samples;Min_cycle;Max_cycle;Signal;HPM_P1;HPM_P2
2022/06/20 00:01:36;;;;;;;5.43;1.63;;;13.80;99.90;;;;;;5052592;28;20264;-71
2022/06/20 00:04:02;;;;;;;8.48;1.42;;;13.80;99.90;;;;;;5069062;28;20036;-71
2022/06/20 00:06:28;;;;;;;4.13;1.27;;;13.80;99.90;;;;;;5052637;28;20044;-71
2022/06/20 00:08:53;;;;;;;5.78;1.83;;;13.90;99.90;;;;;;5068999;28;20121;-71
2022/06/20 00:11:23;;;;;;;3.88;1.40;;;13.80;99.90;;;;;;5069061;28;20036;-71
2022/06/20 00:13:53;;;;;;;6.07;1.70;;;13.80;99.90;;;;;;5073130;28;20040;-71
2022/06/20 00:16:19;;;;;;;5.78;1.45;;;13.80;99.90;;;;;;5073024;28;20043;-71
2022/06/20 00:18:46;;;;;;;6.25;2.13;;;13.80;99.90;;;;;;5073045;28;20033;-71
2022/06/20 00:21:21;;;;;;;4.95;1.48;;;13.80;99.90;;;;;;5056273;28;20032;-71
2022/06/20 00:23:47;;;;;;;4.40;1.55;;;13.80;99.90;;;;;;5072904;28;20051;-71
2022/06/20 00:26:14;;;;;;;8.02;1.90;;;13.80;99.90;;;;;;5073050;28;20051;-71
2022/06/20 00:28:40;;;;;;;7.18;2.15;;;13.90;99.90;;;;;;5074165;28;20124;-71
2022/06/20 00:31:07;;;;;;;5.85;1.60;;;13.90;99.90;;;;;;5074054;28;20460;-71
2022/06/20 00:33:32;;;;;;;5.72;1.40;;;13.90;99.90;;;;;;5073258;28;20113;-71
2022/06/20 00:35:59;;;;;;;9.60;2.00;;;13.90;99.90;;;;;;5072722;28;20473;-71
2022/06/20 00:38:25;;;;;;;5.50;1.33;;;14.00;99.90;;;;;;5055764;28;20060;-71
2022/06/20 00:40:58;;;;;;;4.18;1.77;;;13.90;99.90;;;;;;5072672;28;20040;-71
2022/06/20 00:43:33;;;;;;;9.48;2.40;;;13.90;99.90;;;;;;5055794;28;20032;-71
2022/06/20 00:46:06;;;;;;;6.10;2.47;;;14.00;99.90;;;;;;5072582;28;20460;-71
2022/06/20 00:48:42;;;;;;;4.13;1.75;;;13.90;99.90;;;;;;5055826;28;20029;-71
2022/06/20 00:51:33;;;;;;;6.65;1.98;;;14.00;99.90;;;;;;5072730;28;20367;-71
2022/06/20 00:54:11;;;;;;;5.45;1.90;;;13.90;99.90;;;;;;5073919;28;20089;-71
2022/06/20 00:56:50;;;;;;;5.18;1.98;;;14.00;99.90;;;;;;5072293;28;20058;-71
2022/06/20 00:59:23;;;;;;;8.68;1.90;;;13.90;99.90;;;;;;5072347;28;20040;-71
2022/06/20 01:01:49;;;;;;;6.18;2.10;;;14.00;99.90;;;;;;5072130;28;20041;-71
2022/06/20 01:04:29;;;;;;;7.72;2.10;;;14.00;99.90;;;;;;5073536;28;20474;-71
2022/06/20 01:06:56;;;;;;;6.50;2.03;;;13.90;99.90;;;;;;5072049;28;20080;-71
2022/06/20 01:09:30;;;;;;;7.18;2.40;;;13.90;99.90;;;;;;5055561;28;20045;-71
2022/06/20 01:12:02;;;;;;;7.57;2.10;;;13.90;99.90;;;;;;5055340;28;20045;-72
2022/06/20 01:14:34;;;;;;;6.40;2.55;;;13.90;99.90;;;;;;5071938;28;20729;-71
2022/06/20 01:17:02;;;;;;;6.18;1.80;;;13.90;99.90;;;;;;5071756;28;20041;-71
2022/06/20 01:19:52;;;;;;;5.32;1.80;;;13.90;99.90;;;;;;5055440;28;20044;-71
2022/06/20 01:22:23;;;;;;;7.03;2.00;;;13.90;99.90;;;;;;5071667;28;20049;-72
2022/06/20 01:25:01;;;;;;;7.35;2.15;;;13.80;99.90;;;;;;5070940;28;20048;-71
2022/06/20 01:27:36;;;;;;;5.60;2.10;;;13.70;99.90;;;;;;5071666;28;20036;-71
2022/06/20 01:30:02;;;;;;;5.68;1.90;;;13.70;99.90;;;;;;5071874;28;20040;-71
2022/06/20 01:32:30;;;;;;;6.05;2.30;;;13.60;99.90;;;;;;5071638;28;20344;-71
2022/06/20 01:34:59;;;;;;;7.93;1.92;;;13.60;99.90;;;;;;5071682;28;20044;-71
2022/06/20 01:37:26;;;;;;;7.70;2.35;;;13.50;99.90;;;;;;5071477;28;20090;-71
2022/06/20 01:39:57;;;;;;;6.95;2.67;;;13.40;99.90;;;;;;5071412;28;20059;-71
2022/06/20 01:42:24;;;;;;;7.65;2.33;;;13.40;99.90;;;;;;5073096;28;20464;-71
2022/06/20 01:45:00;;;;;;;5.13;2.00;;;13.30;99.90;;;;;;5072717;28;20636;-71
2022/06/20 01:47:26;;;;;;;5.88;1.83;;;13.30;99.90;;;;;;5071361;28;20051;-71
2022/06/20 01:49:58;;;;;;;3.28;1.92;;;13.30;99.90;;;;;;5072647;28;20044;-71
2022/06/20 01:52:30;;;;;;;7.10;2.17;;;13.20;99.90;;;;;;5071269;28;20086;-72
2022/06/20 01:55:01;;;;;;;;;;;13.20;99.90;;;;;;5071734;28;20128;-71
2022/06/20 01:57:31;;;;;;;6.13;2.45;;;13.20;99.90;;;;;;5071235;28;19973;-71
2022/06/20 02:00:01;;;;;;;5.88;2.20;;;13.10;99.90;;;;;;5071382;28;20139;-71
2022/06/20 02:02:30;;;;;;;5.95;2.35;;;13.10;99.90;;;;;;5071087;28;20056;-71
2022/06/20 02:04:56;;;;;;;6.18;2.08;;;13.10;99.90;;;;;;5072414;28;20120;-71
2022/06/20 02:07:22;;;;;;;5.85;2.05;;;13.10;99.90;;;;;;5071203;28;20148;-71
2022/06/20 02:09:47;;;;;;;6.45;2.30;;;13.00;99.90;;;;;;5070915;28;20047;-71
2022/06/20 02:12:15;;;;;;;4.60;2.10;;;13.00;99.90;;;;;;5070933;28;20368;-71
2022/06/20 02:14:51;;;;;;;5.45;1.88;;;13.00;99.90;;;;;;5072023;28;20084;-71
2022/06/20 02:17:23;;;;;;;4.15;1.90;;;12.90;99.90;;;;;;5071137;28;20050;-71
2022/06/20 02:19:50;;;;;;;;;;;12.90;99.90;;;;;;5071131;28;20080;-71
2022/06/20 02:22:19;;;;;;;6.13;2.05;;;12.80;99.90;;;;;;5054112;28;19942;-71
2022/06/20 02:24:50;;;;;;;3.75;1.55;;;12.70;99.90;;;;;;5071888;28;20040;-71
2022/06/20 02:27:39;;;;;;;9.23;2.20;;;12.70;99.90;;;;;;5070593;28;20040;-71
2022/06/20 02:30:08;;;;;;;5.28;2.78;;;12.60;99.90;;;;;;5071970;28;20093;-71
2022/06/20 02:32:39;;;;;;;5.47;2.10;;;12.50;99.90;;;;;;5070465;28;20037;-71
2022/06/20 02:35:08;;;;;;;5.18;2.00;;;12.50;99.90;;;;;;5070156;28;20127;-71
2022/06/20 02:37:35;;;;;;;5.45;1.95;;;12.40;99.90;;;;;;5070263;28;20522;-71
2022/06/20 02:40:06;;;;;;;5.57;2.00;;;12.30;99.90;;;;;;5070251;28;20498;-71
2022/06/20 02:42:45;;;;;;;4.82;2.10;;;12.20;99.90;;;;;;5070305;28;20123;-71
2022/06/20 02:45:12;;;;;;;6.03;2.20;;;12.20;99.90;;;;;;5070106;28;20044;-71
2022/06/20 02:47:41;;;;;;;5.82;2.28;;;12.20;99.90;;;;;;5070226;28;20043;-71
2022/06/20 02:50:08;;;;;;;6.38;2.35;;;12.10;99.90;;;;;;5069909;28;20044;-71
2022/06/20 02:55:25;;;;;;;5.28;1.63;;;12.10;99.90;;;;;;5069876;28;20106;-71
2022/06/20 02:58:00;;;;;;;5.65;1.85;;;12.00;99.90;;;;;;5037004;28;20040;-71
2022/06/20 03:00:33;;;;;;;6.15;2.30;;;12.00;99.90;;;;;;5053589;28;20385;-71
2022/06/20 03:03:09;;;;;;;4.35;1.80;;;11.90;99.90;;;;;;5053518;28;20079;-71
2022/06/20 03:05:36;;;;;;;7.40;2.35;;;11.90;99.90;;;;;;5053115;28;20513;-71
2022/06/20 03:08:02;;;;;;;2.95;1.98;;;11.90;99.90;;;;;;5052906;28;20497;-71
2022/06/20 03:10:41;;;;;;;4.13;2.05;;;11.80;99.90;;;;;;5070805;28;20079;-71
2022/06/20 03:13:08;;;;;;;3.45;1.83;;;11.80;99.90;;;;;;5052859;28;20411;-71
2022/06/20 03:15:37;;;;;;;4.85;1.80;;;11.70;99.90;;;;;;5052361;28;20095;-71
2022/06/20 03:18:05;;;;;;;4.40;1.75;;;11.70;99.90;;;;;;5070626;28;20048;-71
2022/06/20 03:20:31;;;;;;;6.65;2.22;;;11.70;99.90;;;;;;5070593;28;20041;-71
2022/06/20 03:23:25;;;;;;;5.45;2.00;;;11.60;99.90;;;;;;5052843;28;20032;-71
2022/06/20 03:25:52;;;;;;;4.43;2.00;;;11.60;99.90;;;;;;5052629;28;20091;-71
2022/06/20 03:28:19;;;;;;;6.95;2.20;;;;;;;;;;5053064;28;20076;-71
2022/06/20 03:30:46;;;;;;;4.80;1.95;;;11.50;99.90;;;;;;5052561;28;20048;-71
2022/06/20 03:33:13;;;;;;;3.60;1.67;;;11.50;99.90;;;;;;5053043;28;20525;-71
2022/06/20 03:35:42;;;;;;;4.70;1.70;;;11.40;99.90;;;;;;5052526;28;20049;-71
2022/06/20 03:38:08;;;;;;;3.70;2.13;;;11.30;99.90;;;;;;5070589;28;20036;-72
2022/06/20 03:40:39;;;;;;;4.47;1.83;;;11.30;99.90;;;;;;5052411;28;20510;-72
2022/06/20 03:43:06;;;;;;;5.75;2.20;;;11.30;99.90;;;;;;5052619;28;20036;-72
2022/06/20 03:45:35;;;;;;;5.68;2.05;;;11.20;99.90;;;;;;5052276;28;20037;-71
2022/06/20 03:48:08;;;;;;;3.58;2.13;;;11.20;99.90;;;;;;5052084;28;20071;-71
2022/06/20 03:50:38;;;;;;;7.38;2.10;;;11.20;99.90;;;;;;5052355;28;20120;-71
2022/06/20 03:53:16;;;;;;;7.95;2.25;;;11.10;99.90;;;;;;5052449;28;20033;-71
2022/06/20 03:55:58;;;;;;;7.22;2.20;;;11.10;99.90;;;;;;5052318;28;20048;-71
2022/06/20 03:58:46;;;;;;;6.63;1.80;;;11.10;99.90;;;;;;5052435;28;20041;-71
2022/06/20 04:01:18;;;;;;;8.52;2.45;;;11.10;99.90;;;;;;5035828;28;20397;-71
2022/06/20 04:03:45;;;;;;;4.40;2.08;;;11.10;99.90;;;;;;5052272;28;20075;-70
2022/06/20 04:06:31;;;;;;;5.25;2.40;;;11.10;99.90;;;;;;5052102;28;20516;-71
2022/06/20 04:11:51;;;;;;;9.70;2.28;;;11.20;99.90;;;;;;5068893;28;20076;-71
2022/06/20 04:14:22;;;;;;;8.23;2.53;;;11.20;99.90;;;;;;5052211;28;20117;-71
2022/06/20 04:18:27;;;;;;;6.13;1.90;;;11.20;99.90;;;;;;5052298;28;20131;-71
2022/06/20 04:19:52;;;;;;;8.05;2.45;;;11.30;99.90;;;;;;5052267;28;20411;-71
2022/06/20 04:22:22;;;;;;;4.65;2.35;;;11.30;99.90;;;;;;5052081;28;20458;-71
2022/06/20 04:24:56;;;;;;;5.63;2.33;;;11.30;99.90;;;;;;5070199;28;20041;-71
2022/06/20 04:27:28;;;;;;;7.45;2.47;;;11.30;99.90;;;;;;5052054;28;20040;-72
2022/06/20 04:30:00;;;;;;;5.22;2.33;;;11.40;99.90;;;;;;5052330;28;20405;-73
2022/06/20 04:32:51;;;;;;;6.15;2.20;;;11.40;99.90;;;;;;5051883;28;20045;-72
2022/06/20 04:35:22;;;;;;;11.70;2.80;;;11.50;99.90;;;;;;5051978;28;20045;-71
2022/06/20 04:37:55;;;;;;;4.85;2.78;;;11.60;99.90;;;;;;5052177;28;20478;-71
2022/06/20 04:40:38;;;;;;;7.90;3.22;;;11.70;99.90;;;;;;5068768;28;20402;-71
2022/06/20 04:43:29;;;;;;;9.38;3.20;;;11.80;99.90;;;;;;5052240;28;20127;-71
2022/06/20 04:45:58;;;;;;;7.57;2.70;;;12.00;99.90;;;;;;5051746;28;20033;-71
2022/06/20 04:48:25;;;;;;;7.63;2.78;;;12.20;99.90;;;;;;5051941;28;20049;-71
2022/06/20 04:50:54;;;;;;;8.20;3.53;;;12.40;99.90;;;;;;5051739;28;20032;-71
2022/06/20 04:53:26;;;;;;;7.35;3.08;;;12.60;99.90;;;;;;5051924;28;20060;-71
2022/06/20 04:55:55;;;;;;;7.70;2.80;;;12.60;99.90;;;;;;5051720;28;20048;-71
2022/06/20 04:58:34;;;;;;;5.47;3.08;;;12.70;99.90;;;;;;5071625;28;20109;-71
2022/06/20 05:01:01;;;;;;;5.45;2.78;;;12.80;99.90;;;;;;5055439;28;20053;-71
2022/06/20 05:03:31;;;;;;;7.13;2.67;;;12.90;99.90;;;;;;5055368;28;20060;-71
2022/06/20 05:06:00;;;;;;;7.45;2.33;;;12.90;99.90;;;;;;5055406;28;20413;-71
2022/06/20 05:08:39;;;;;;;9.18;3.47;;;13.00;99.90;;;;;;5055397;28;20044;-71
2022/06/20 05:11:16;;;;;;;9.43;3.03;;;13.00;99.90;;;;;;5055207;28;20053;-72
2022/06/20 05:13:48;;;;;;;7.53;3.22;;;13.10;99.90;;;;;;5055478;28;20071;-72
2022/06/20 05:16:19;;;;;;;5.90;2.67;;;13.20;99.90;;;;;;5073174;28;20079;-71
2022/06/20 05:18:50;;;;;;;7.85;2.78;;;13.20;99.90;;;;;;5073617;28;20071;-71
2022/06/20 05:21:20;;;;;;;5.90;2.83;;;13.30;99.90;;;;;;5055180;28;20040;-72
2022/06/20 05:23:51;;;;;;;7.90;3.10;;;13.30;99.90;;;;;;5038367;28;20040;-72
2022/06/20 05:26:29;;;;;;;7.43;3.20;;;13.40;99.90;;;;;;5055051;28;20040;-72
2022/06/20 05:28:58;;;;;;;9.30;2.85;;;13.60;99.90;;;;;;5055357;28;20095;-72
2022/06/20 05:31:38;;;;;;;7.65;3.22;;;13.60;99.90;;;;;;5054774;28;20106;-72
2022/06/20 05:34:36;;;;;;;9.40;3.17;;;13.70;99.90;;;;;;5055082;28;20049;-72
2022/06/20 05:37:12;;;;;;;7.57;3.05;;;13.80;99.90;;;;;;5049002;28;20060;-72
2022/06/20 05:39:50;;;;;;;8.70;3.03;;;13.90;99.90;;;;;;5054984;28;20068;-71
2022/06/20 05:42:18;;;;;;;9.98;3.15;;;14.00;99.90;;;;;;5072652;28;20079;-72
2022/06/20 05:44:45;;;;;;;7.13;2.75;;;14.10;99.90;;;;;;5037952;28;20068;-71
2022/06/20 05:47:31;;;;;;;8.05;3.10;;;14.30;99.90;;;;;;5054674;28;20497;-72
2022/06/20 05:50:10;;;;;;;7.60;2.45;;;15.70;99.90;;;;;;5054801;28;20040;-72
2022/06/20 05:52:40;;;;;;;6.53;2.33;;;17.70;99.90;;;;;;5054675;28;20102;-72
2022/06/20 05:55:17;;;;;;;6.38;2.40;;;19.40;99.90;;;;;;5054432;28;20098;-72
2022/06/20 05:57:46;;;;;;;7.80;2.58;;;20.90;96.00;;;;;;5054312;28;20127;-72
2022/06/20 06:00:30;;;;;;;10.88;2.85;;;21.70;96.30;;;;;;5054319;28;20477;-72
2022/06/20 06:03:02;;;;;;;8.18;2.97;;;22.50;92.80;;;;;;5072216;28;20032;-72
2022/06/20 06:05:30;;;;;;;;;;;23.20;92.10;;;;;;5054627;28;20478;-72
2022/06/20 06:08:15;;;;;;;7.78;2.42;;;;;;;;;;5070705;28;19962;-72
2022/06/20 06:10:52;;;;;;;11.43;2.88;;;24.50;87.70;;;;;;5053577;28;20036;-72
2022/06/20 06:13:21;;;;;;;8.70;2.88;;;25.10;87.60;;;;;;5054211;28;20032;-72
2022/06/20 06:16:46;;;;;;;7.35;2.75;;;25.80;86.10;;;;;;5054463;28;20036;-72
2022/06/20 06:18:48;;;;;;;7.50;2.58;;;26.30;81.50;;;;;;5054175;28;20052;-72
2022/06/20 06:21:14;;;;;;;5.82;2.63;;;26.60;77.50;;;;;;5054038;28;20052;-72
2022/06/20 06:23:40;;;;;;;7.47;2.88;;;26.80;78.70;;;;;;5053659;28;20048;-72
2022/06/20 06:26:12;;;;;;;7.63;2.70;;;26.90;78.60;;;;;;5054217;28;20524;-72
2022/06/20 06:28:39;;;;;;;10.73;2.55;;;26.60;75.60;;;;;;5071758;28;20474;-72
2022/06/20 06:31:12;;;;;;;6.40;2.53;;;26.60;75.20;;;;;;5054153;28;20367;-71
2022/06/20 06:33:49;;;;;;;6.32;2.17;;;26.60;74.60;;;;;;5070363;28;20052;-72
2022/06/20 06:36:35;;;;;;;7.00;2.63;;;26.70;73.30;;;;;;5053782;28;20113;-72
2022/06/20 06:39:21;;;;;;;6.80;2.88;;;25.80;72.60;;;;;;5070226;28;20052;-71
2022/06/20 06:41:51;;;;;;;6.20;2.20;;;24.40;73.90;;;;;;5053985;28;20066;-72
2022/06/20 06:44:22;;;;;;;4.68;2.40;;;24.10;76.80;;;;;;5053491;28;20102;-72
2022/06/20 06:46:51;;;;;;;5.35;2.55;;;24.90;77.50;;;;;;5053612;28;20082;-72
2022/06/20 06:49:45;;;;;;;7.32;2.08;;;25.10;70.90;;;;;;5053258;28;20044;-72
2022/06/20 06:52:13;;;;;;;9.43;2.30;;;25.60;73.20;;;;;;5053352;28;20048;-72
2022/06/20 06:54:42;;;;;;;6.30;2.15;;;25.60;73.00;;;;;;5071156;28;20139;-72
2022/06/20 06:57:43;;;;;;;5.07;1.85;;;25.60;72.70;;;;;;5071291;28;20074;-72
2022/06/20 07:00:41;;;;;;;4.45;2.35;;;25.20;70.00;;;;;;5021770;28;20495;-72
2022/06/20 07:03:30;;;;;;;6.18;2.92;;;24.40;71.10;;;;;;5053470;28;20037;-72
2022/06/20 07:06:02;;;;;;;7.10;2.50;;;24.10;73.50;;;;;;5053192;28;20036;-72
2022/06/20 07:08:40;;;;;;;7.18;2.40;;;24.50;74.20;;;;;;5053089;28;20145;-71
2022/06/20 07:11:21;;;;;;;4.75;2.03;;;23.40;74.30;;;;;;5053106;28;20059;-72
2022/06/20 07:14:05;;;;;;;5.80;2.28;;;22.70;74.60;;;;;;5052830;28;20032;-71
2022/06/20 07:16:43;;;;;;;6.43;2.33;;;22.80;73.10;;;;;;5070885;28;20538;-71
2022/06/20 07:19:12;;;;;;;7.70;2.22;;;22.40;75.80;;;;;;5053014;28;20186;-72
2022/06/20 07:21:39;;;;;;;6.97;2.20;;;22.20;76.80;;;;;;5052062;28;20037;-72
2022/06/20 07:24:18;;;;;;;7.15;2.13;;;23.00;76.70;;;;;;5052680;28;20052;-72
2022/06/20 07:27:11;;;;;;;5.65;2.63;;;23.60;74.90;;;;;;5052860;28;20178;-72
2022/06/20 07:29:45;;;;;;;5.35;2.25;;;22.60;75.20;;;;;;5052870;28;20119;-72
2022/06/20 07:32:15;;;;;;;6.05;2.33;;;22.10;76.60;;;;;;5036434;28;20051;-72
2022/06/20 07:35:01;;;;;;;6.57;2.83;;;21.60;78.40;;;;;;5052495;28;20048;-72
2022/06/20 07:37:34;;;;;;;7.90;2.70;;;22.40;79.20;;;;;;5052900;28;20466;-72
2022/06/20 07:40:24;;;;;;;5.43;2.60;;;22.70;77.00;;;;;;5052554;28;20524;-72
2022/06/20 07:42:59;;;;;;;7.47;2.50;;;22.20;76.50;;;;;;5052598;28;20052;-72
2022/06/20 07:45:32;;;;;;;8.63;2.65;;;21.60;78.50;;;;;;5052182;28;20542;-72
2022/06/20 07:48:19;;;;;;;6.70;2.70;;;21.30;80.00;;;;;;5052776;28;20033;-72
2022/06/20 07:51:07;;;;;;;7.22;2.47;;;20.80;79.40;;;;;;5052427;28;20041;-72
2022/06/20 07:53:43;;;;;;;6.03;2.30;;;20.80;80.60;;;;;;5048821;28;20056;-72
2022/06/20 07:56:18;;;;;;;3.92;2.17;;;20.50;80.40;;;;;;5049590;28;20426;-72
2022/06/20 07:58:54;;;;;;;4.63;2.08;;;19.60;81.40;;;;;;5048889;28;20080;-72
2022/06/20 08:01:45;;;;;;;8.77;2.15;;;21.00;80.40;;;;;;5050356;28;20037;-72
2022/06/20 08:04:11;;;;;;;8.90;2.40;;;21.20;79.00;;;;;;5049023;28;20380;-72
2022/06/20 08:06:42;;;;;;;5.50;2.22;;;20.40;80.40;;;;;;5048899;28;20036;-72
2022/06/20 08:09:19;;;;;;;5.05;2.00;;;20.10;82.30;;;;;;5048920;28;20037;-72
2022/06/20 08:11:50;;;;;;;4.68;1.98;;;20.70;81.40;;;;;;5048822;28;20112;-72
2022/06/20 08:14:38;;;;;;;5.90;1.90;;;21.30;79.50;;;;;;5048962;28;20045;-72
2022/06/20 08:17:10;;;;;;;5.32;1.77;;;21.60;78.70;;;;;;5048796;28;20060;-72
2022/06/20 08:19:38;;;;;;;6.03;2.28;;;21.40;78.10;;;;;;5048912;28;20052;-72
2022/06/20 08:22:11;;;;;;;5.80;1.80;;;21.00;79.10;;;;;;5048601;28;20047;-72
2022/06/20 08:24:45;;;;;;;5.05;1.85;;;20.70;80.70;;;;;;5048575;28;20045;-72
2022/06/20 08:27:17;;;;;;;5.38;1.75;;;20.50;81.70;;;;;;5048710;28;20038;-72
2022/06/20 08:29:52;;;;;;;5.07;1.55;;;20.20;83.10;;;;;;5048885;28;20558;-72
2022/06/20 08:32:38;;;;;;;4.63;1.27;;;19.90;83.20;;;;;;5065642;28;20370;-72
2022/06/20 08:35:10;;;;;;;4.53;1.50;;;19.60;83.60;;;;;;5052909;28;20045;-72
2022/06/20 08:37:45;;;;;;;4.22;1.50;;;19.30;84.80;;;;;;5054089;28;20052;-72
2022/06/20 08:40:19;;;;;;;4.85;1.63;;;19.40;85.00;;;;;;5052780;28;20481;-72
2022/06/20 08:43:21;;;;;;;5.32;1.40;;;19.70;83.90;;;;;;5052617;28;20037;-72
2022/06/20 08:45:57;;;;;;;4.75;1.48;;;19.80;84.20;;;;;;5054119;28;20102;-72
2022/06/20 08:48:35;;;;;;;3.72;0.88;;;20.00;83.20;;;;;;5052586;28;20040;-72
2022/06/20 08:51:12;;;;;;;2.33;1.30;;;19.70;81.70;;;;;;5052156;28;20041;-72
2022/06/20 08:53:48;;;;;;;3.90;1.45;;;19.70;80.70;;;;;;5052243;28;20072;-72
2022/06/20 08:56:13;;;;;;;4.13;1.85;;;19.40;80.50;;;;;;5052136;28;20132;-72
2022/06/20 08:58:59;;;;;;;3.63;1.40;;;19.90;82.20;;;;;;5053532;28;20123;-72
2022/06/20 09:02:06;;;;;;;2.35;1.45;;;20.10;82.00;;;;;;5069056;28;20033;-72
2022/06/20 09:05:02;;;;;;;6.25;1.40;;;20.10;80.20;;;;;;5035102;28;20057;-72
2022/06/20 09:07:55;;;;;;;5.25;1.55;;;19.80;81.60;;;;;;5052446;28;20142;-72
2022/06/20 09:10:50;;;;;;;3.47;1.42;;;19.80;81.30;;;;;;5052002;28;20045;-72
2022/06/20 09:13:49;;;;;;;4.70;1.42;;;19.70;83.20;;;;;;5053443;28;20036;-72
2022/06/20 09:16:39;;;;;;;3.80;1.58;;;19.90;82.40;;;;;;5068539;28;20120;-71
2022/06/20 09:19:37;;;;;;;3.90;1.27;;;20.00;82.20;;;;;;5052210;28;20363;-72
2022/06/20 09:22:45;;;;;;;2.60;1.15;;;20.00;80.80;;;;;;5052992;28;20044;-72
2022/06/20 09:25:38;;;;;;;3.35;1.50;;;20.10;79.50;;;;;;5023473;28;20494;-72
2022/06/20 09:28:15;;;;;;;4.75;1.52;;;19.80;79.00;;;;;;5051745;28;20044;-72
2022/06/20 09:31:09;;;;;;;3.00;1.63;;;20.00;80.30;;;;;;5051597;28;20398;-72
2022/06/20 09:33:52;;;;;;;3.35;1.48;;;19.70;82.50;;;;;;5035179;28;20040;-72
2022/06/20 09:36:51;;;;;;;6.38;1.73;;;19.60;82.30;;;;;;5051630;28;20049;-72
2022/06/20 09:39:32;;;;;;;5.50;1.58;;;19.50;82.80;;;;;;5051593;28;20041;-72
2022/06/20 09:42:16;;;;;;;4.97;1.60;;;19.60;83.00;;;;;;5052804;28;20047;-72
2022/06/20 09:44:56;;;;;;;3.40;1.55;;;19.50;82.00;;;;;;5051701;28;20578;-72
2022/06/20 09:47:49;;;;;;;3.65;1.67;;;19.60;81.70;;;;;;5051605;28;20461;-72
2022/06/20 09:50:44;;;;;;;2.92;1.00;;;20.00;83.10;;;;;;5051575;28;20049;-72
2022/06/20 09:53:12;;;;;;;4.25;1.25;;;20.40;78.10;;;;;;5052881;28;20069;-72
2022/06/20 09:55:52;;;;;;;3.55;1.40;;;20.30;79.00;;;;;;5071286;28;20044;-72
2022/06/20 09:58:39;;;;;;;2.25;1.27;;;20.40;78.20;;;;;;5054708;28;20503;-72
2022/06/20 10:01:29;;;;;;;5.68;1.48;;;20.10;77.40;;;;;;5054085;28;20045;-72
2022/06/20 10:04:09;;;;;;;5.97;1.58;;;19.80;79.60;;;;;;5054324;28;20652;-72
2022/06/20 10:07:01;;;;;;;5.07;1.55;;;19.90;81.80;;;;;;5071231;28;20040;-72
2022/06/20 10:09:41;;;;;;;4.68;1.60;;;20.10;81.40;;;;;;5037789;28;20048;-72
2022/06/20 10:12:18;;;;;;;5.18;1.45;;;20.20;82.30;;;;;;5072177;28;20107;-72
2022/06/20 10:15:03;;;;;;;2.88;1.27;;;20.10;81.70;;;;;;5054152;28;20040;-72
2022/06/20 10:17:36;;;;;;;2.75;1.45;;;20.20;82.30;;;;;;5072047;28;20052;-72
2022/06/20 10:20:26;;;;;;;4.57;1.70;;;20.10;81.10;;;;;;5054064;28;20045;-72
2022/06/20 10:23:18;;;;;;;7.45;2.10;;;20.10;83.00;;;;;;5054137;28;20401;-72
2022/06/20 10:26:05;;;;;;;3.20;1.38;;;20.20;83.20;;;;;;5053940;28;20490;-72
2022/06/20 10:28:48;;;;;;;3.92;1.50;;;19.80;78.60;;;;;;5053816;28;20055;-71
2022/06/20 10:31:44;;;;;;;4.30;1.50;;;19.90;80.60;;;;;;5053849;28;20086;-71
2022/06/20 10:34:28;;;;;;;4.82;1.35;;;20.00;81.30;;;;;;5053876;28;20048;-71
2022/06/20 10:37:18;;;;;;;3.78;1.42;;;19.60;81.80;;;;;;5053641;28;20544;-71
2022/06/20 10:40:11;;;;;;;4.97;1.42;;;20.00;80.50;;;;;;5053706;28;20043;-71
2022/06/20 10:43:09;;;;;;;2.53;1.40;;;19.80;80.60;;;;;;5071489;28;20071;-71
2022/06/20 10:45:40;;;;;;;3.97;1.30;;;19.80;79.90;;;;;;5071228;28;20552;-71
2022/06/20 10:48:36;;;;;;;4.22;1.42;;;20.00;79.60;;;;;;5053327;28;20040;-71
2022/06/20 10:51:32;;;;;;;4.60;1.55;;;20.50;80.00;;;;;;5053776;28;20090;-71
2022/06/20 10:54:26;;;;;;;3.72;1.23;;;20.60;80.50;;;;;;5071126;28;20055;-71
2022/06/20 10:57:12;;;;;;;4.78;1.55;;;20.80;79.70;;;;;;5052939;28;20044;-71
2022/06/20 10:59:55;;;;;;;4.38;1.38;;;20.90;79.90;;;;;;5069831;28;20044;-71
2022/06/20 11:02:58;;;;;;;3.80;1.83;;;21.10;79.40;;;;;;5053188;28;20119;-71
2022/06/20 11:05:51;;;;;;;4.88;1.60;;;20.90;78.00;;;;;;5053018;28;20044;-71
2022/06/20 11:08:29;;;;;;;2.78;1.52;;;20.60;79.70;;;;;;5070993;28;20067;-71
2022/06/20 11:11:07;;;;;;;4.50;1.88;;;20.70;81.40;;;;;;5053070;28;20043;-71
2022/06/20 11:13:50;;;;;;;4.25;1.33;;;20.60;81.10;;;;;;5070833;28;20108;-71
2022/06/20 11:16:43;;;;;;;3.38;1.17;;;20.50;77.10;;;;;;5070869;28;20493;-71
2022/06/20 11:19:38;;;;;;;4.97;1.55;;;20.50;77.60;;;;;;5062767;28;20052;-71
2022/06/20 11:22:34;;;;;;;4.57;1.50;;;20.70;79.30;;;;;;5053059;28;20089;-71
2022/06/20 11:25:31;;;;;;;5.65;1.80;;;20.50;79.20;;;;;;5052812;28;20575;-71
2022/06/20 11:28:09;;;;;;;4.95;1.70;;;20.20;80.00;;;;;;5070753;28;20068;-71
2022/06/20 11:30:56;;;;;;;4.00;1.50;;;19.50;79.40;;;;;;5069476;28;20079;-71
2022/06/20 11:34:09;;;;;;;3.15;1.30;;;19.90;81.40;;;;;;5052565;28;20891;-71
2022/06/20 11:37:00;;;;;;;3.97;1.42;;;20.20;77.00;;;;;;5015993;28;20057;-71
2022/06/20 11:39:43;;;;;;;3.17;1.50;;;20.40;79.60;;;;;;5052485;28;20051;-71
2022/06/20 11:42:34;;;;;;;4.22;1.55;;;20.10;80.20;;;;;;5052603;28;20575;-71
2022/06/20 11:45:31;;;;;;;4.53;1.50;;;20.40;82.20;;;;;;5052554;28;20052;-71
2022/06/20 11:48:12;;;;;;;5.72;1.80;;;20.60;80.90;;;;;;5034994;28;20059;-71
2022/06/20 11:50:49;;;;;;;5.93;1.58;;;20.50;79.20;;;;;;5052612;28;20044;-71
2022/06/20 11:53:36;;;;;;;4.30;1.60;;;20.80;79.20;;;;;;5035962;28;20435;-71
2022/06/20 11:56:25;;;;;;;5.40;2.10;;;20.70;78.00;;;;;;5052454;28;20506;-72
2022/06/20 11:59:34;;;;;;;5.60;1.65;;;20.40;79.90;;;;;;5052266;28;20128;-71
2022/06/20 12:02:22;;;;;;;4.18;1.50;;;20.50;79.60;;;;;;5052369;28;20233;-71
2022/06/20 12:05:16;;;;;;;6.05;1.63;;;20.40;78.10;;;;;;5052355;28;20041;-71
2022/06/20 12:08:16;;;;;;;4.10;2.15;;;20.40;78.60;;;;;;5052091;28;20040;-71
2022/06/20 12:10:51;;;;;;;3.78;1.63;;;20.00;79.50;;;;;;5052581;28;20040;-71
2022/06/20 12:13:25;;;;;;;3.55;1.75;;;20.60;81.00;;;;;;5070337;28;20123;-71
2022/06/20 12:16:11;;;;;;;4.13;1.75;;;20.60;80.50;;;;;;5035670;28;20043;-71
2022/06/20 12:24:40;;;;;;;3.63;1.52;;;20.40;80.40;;;;;;5068837;28;20049;-71
2022/06/20 12:27:12;;;;;;;3.22;1.70;;;20.90;80.50;;;;;;5052180;28;20462;-71
2022/06/20 12:29:38;;;;;;;3.00;1.48;;;21.20;80.20;;;;;;5070239;28;20445;-71
2022/06/20 12:32:10;;;;;;;4.78;1.65;;;20.50;77.60;;;;;;5052274;28;20051;-71
2022/06/20 12:34:57;;;;;;;3.00;1.30;;;20.50;79.50;;;;;;5052244;28;20146;-71
2022/06/20 12:37:45;;;;;;;4.07;1.67;;;20.40;80.60;;;;;;5052264;28;20400;-71
2022/06/20 12:40:11;;;;;;;2.47;1.42;;;20.40;78.30;;;;;;5069979;28;20457;-71
2022/06/20 12:42:46;;;;;;;3.97;1.45;;;20.00;77.60;;;;;;5052438;28;20080;-71
2022/06/20 12:45:53;;;;;;;5.55;1.50;;;20.30;80.90;;;;;;5051696;28;20055;-71
2022/06/20 12:48:49;;;;;;;3.53;1.23;;;20.10;79.20;;;;;;5052245;28;20056;-71
2022/06/20 12:51:33;;;;;;;5.38;1.60;;;19.50;81.30;;;;;;5051982;28;20041;-71
2022/06/20 12:54:18;;;;;;;2.55;1.33;;;19.80;79.10;;;;;;5051606;28;20129;-71
2022/06/20 12:57:05;;;;;;;3.15;1.50;;;20.10;79.60;;;;;;5070183;28;20048;-71
2022/06/20 13:00:08;;;;;;;2.58;1.33;;;20.10;77.00;;;;;;5051693;28;20102;-71
2022/06/20 13:02:53;;;;;;;1.98;1.17;;;20.40;79.70;;;;;;5052043;28;20037;-71
2022/06/20 13:05:24;;;;;;;5.60;1.60;;;20.80;78.10;;;;;;5051752;28;20402;-71
2022/06/20 13:08:07;;;;;;;5.57;1.48;;;20.70;74.40;;;;;;5052029;28;20046;-71
2022/06/20 13:11:12;;;;;;;2.25;1.25;;;20.70;75.90;;;;;;5069701;28;20116;-71
2022/06/20 13:13:55;;;;;;;3.88;1.70;;;20.70;78.60;;;;;;5051915;28;20071;-71
2022/06/20 13:16:38;;;;;;;2.08;1.38;;;20.70;80.30;;;;;;5051563;28;20044;-71
2022/06/20 13:19:03;;;;;;;3.22;1.40;;;20.70;78.20;;;;;;5051911;28;20044;-71
2022/06/20 13:21:49;;;;;;;3.45;1.35;;;20.50;79.80;;;;;;5073185;28;20098;-71
2022/06/20 13:24:44;;;;;;;4.05;1.63;;;21.00;78.90;;;;;;5055023;28;20521;-71
2022/06/20 13:27:36;;;;;;;2.00;1.30;;;20.80;79.80;;;;;;5055394;28;20047;-71
2022/06/20 13:30:43;;;;;;;5.47;1.30;;;20.90;81.40;;;;;;5055445;28;20456;-71
2022/06/20 13:33:50;;;;;;;3.20;1.50;;;20.80;79.50;;;;;;5032682;28;20066;-71
2022/06/20 13:36:39;;;;;;;4.22;1.60;;;20.60;79.80;;;;;;5054891;28;20486;-71
2022/06/20 13:39:32;;;;;;;4.65;1.40;;;20.50;80.40;;;;;;5054887;28;20036;-71
2022/06/20 13:42:10;;;;;;;2.45;1.40;;;20.60;80.70;;;;;;5055106;28;20201;-71
2022/06/20 13:44:58;;;;;;;3.28;1.52;;;20.30;80.20;;;;;;5054950;28;20152;-71
2022/06/20 13:47:34;;;;;;;3.08;1.13;;;19.80;81.20;;;;;;5054720;28;20040;-71
2022/06/20 13:50:22;;;;;;;5.97;1.63;;;20.30;79.90;;;;;;5054621;28;20072;-71
2022/06/20 13:52:48;;;;;;;2.42;1.48;;;20.40;78.40;;;;;;5054677;28;20090;-71
2022/06/20 13:55:35;;;;;;;2.60;1.38;;;20.80;80.60;;;;;;5054354;28;20056;-71
2022/06/20 13:58:22;;;;;;;3.90;1.50;;;21.10;80.30;;;;;;5054539;28;20059;-71